Time;durP1;ratioP1;P1;durP2;ratioP2;P2;SDS_P1;SDS_P2;PMS_P1;PMS_P2;Temp;Humidity;BMP_temperature;BMP_pressure;BME280_temperature;BME280_humidity;BME280_pressure;Samples;Min_cycle;Max_cycle;Signal;HPM_P1;HPM_P2
2022/07/28 00:01:33;;;;;;;3.10;2.10;;;13.90;76.10;;;;;;4132619;28;20677;-74
2022/07/28 00:03:34;;;;;;;4.63;2.57;;;13.80;76.60;;;;;;4133227;28;20187;-72
2022/07/28 00:05:35;;;;;;;3.07;2.00;;;13.80;76.70;;;;;;4132010;28;20214;-73
2022/07/28 00:07:35;;;;;;;3.77;1.97;;;13.80;76.60;;;;;;4132999;28;20178;-72
2022/07/28 00:09:36;;;;;;;4.70;2.27;;;13.80;76.90;;;;;;4132835;28;20289;-72
2022/07/28 00:11:37;;;;;;;2.87;2.43;;;13.70;77.20;;;;;;4132624;28;20680;-73
2022/07/28 00:13:37;;;;;;;3.77;1.90;;;13.70;77.30;;;;;;4131445;28;20178;-73
2022/07/28 00:15:38;;;;;;;2.47;1.97;;;13.70;77.20;;;;;;4130939;28;20213;-72
2022/07/28 00:17:38;;;;;;;3.17;2.23;;;13.70;77.60;;;;;;4132684;28;20213;-73
2022/07/28 00:19:39;;;;;;;1.73;1.63;;;13.60;77.90;;;;;;4132712;28;20190;-73
2022/07/28 00:21:39;;;;;;;6.07;2.10;;;13.60;78.10;;;;;;4131226;28;20281;-73
2022/07/28 00:23:40;;;;;;;2.43;1.90;;;13.60;77.90;;;;;;4132621;28;20544;-73
2022/07/28 00:25:40;;;;;;;6.63;2.60;;;13.60;78.00;;;;;;4131410;28;20218;-73
2022/07/28 00:27:41;;;;;;;3.17;2.20;;;13.50;78.40;;;;;;4132379;28;20261;-73
2022/07/28 00:29:42;;;;;;;3.43;1.90;;;13.50;78.60;;;;;;4132475;28;20177;-73
2022/07/28 00:31:43;;;;;;;4.60;2.23;;;13.50;78.90;;;;;;4132282;28;20190;-73
2022/07/28 00:33:43;;;;;;;5.50;2.20;;;13.50;78.80;;;;;;4130915;28;20186;-73
2022/07/28 00:35:44;;;;;;;2.33;2.13;;;13.50;78.80;;;;;;4131555;28;20240;-73
2022/07/28 00:37:44;;;;;;;5.07;2.13;;;13.50;79.00;;;;;;4131702;28;20186;-73
2022/07/28 00:39:45;;;;;;;4.70;2.00;;;13.40;79.20;;;;;;4132105;28;20289;-73
2022/07/28 00:41:45;;;;;;;6.80;2.00;;;13.40;79.50;;;;;;4132125;28;20187;-73
2022/07/28 00:43:49;;;;;;;2.43;2.20;;;13.30;79.40;;;;;;4131480;28;20536;-72
2022/07/28 00:45:49;;;;;;;2.20;2.00;;;13.30;81.10;;;;;;4132095;28;20293;-73
2022/07/28 00:47:50;;;;;;;5.30;2.10;;;13.30;79.90;;;;;;4131911;28;20182;-73
2022/07/28 00:49:50;;;;;;;5.70;1.97;;;13.20;80.30;;;;;;4130852;28;20202;-73
2022/07/28 00:51:52;;;;;;;3.60;2.23;;;13.20;80.50;;;;;;4132039;28;20198;-73
2022/07/28 00:53:53;;;;;;;5.30;2.17;;;13.20;81.00;;;;;;4129996;28;20186;-73
2022/07/28 00:55:54;;;;;;;5.10;2.13;;;13.10;81.30;;;;;;4131731;28;20222;-74
2022/07/28 00:57:55;;;;;;;2.40;2.20;;;13.10;81.20;;;;;;4132053;28;20298;-74
2022/07/28 00:59:55;;;;;;;3.60;2.20;;;13.10;81.50;;;;;;4130684;28;20641;-74
2022/07/28 01:01:56;;;;;;;4.20;2.20;;;13.10;81.70;;;;;;4131860;28;20191;-72
2022/07/28 01:04:00;;;;;;;2.63;2.40;;;13.10;81.80;;;;;;4131305;28;20269;-74
2022/07/28 01:06:30;;;;;;;4.50;2.80;;;13.10;81.80;;;;;;4131999;28;20721;-73
2022/07/28 01:09:04;;;;;;;3.40;2.23;;;13.00;82.20;;;;;;4131660;28;20191;-74
2022/07/28 01:11:12;;;;;;;3.33;2.10;;;13.00;82.20;;;;;;4130492;28;20191;-74
2022/07/28 01:13:23;;;;;;;2.90;2.10;;;13.00;82.70;;;;;;4132160;28;20166;-74
2022/07/28 01:15:32;;;;;;;2.67;2.10;;;12.90;83.30;;;;;;4129846;28;20217;-75
2022/07/28 01:17:41;;;;;;;3.33;2.43;;;12.80;84.30;;;;;;4131436;28;20193;-75
2022/07/28 01:19:52;;;;;;;3.17;2.20;;;12.80;84.80;;;;;;4130315;28;20704;-76
2022/07/28 01:21:54;;;;;;;2.80;2.30;;;12.70;84.80;;;;;;4131889;28;20181;-76
2022/07/28 01:24:26;;;;;;;3.90;2.30;;;12.80;84.90;;;;;;4129540;28;20186;-74
2022/07/28 01:26:46;;;;;;;3.50;2.03;;;12.70;84.70;;;;;;4131608;28;20258;-76
2022/07/28 01:29:08;;;;;;;4.70;2.20;;;12.70;84.80;;;;;;4131411;28;20584;-73
2022/07/28 01:31:11;;;;;;;3.17;2.20;;;12.70;85.40;;;;;;4131648;28;20572;-73
2022/07/28 01:33:17;;;;;;;3.53;2.57;;;12.60;85.10;;;;;;4131324;28;20664;-75
2022/07/28 01:35:22;;;;;;;2.97;2.40;;;12.60;85.60;;;;;;4129370;28;20241;-74
2022/07/28 01:37:28;;;;;;;2.77;2.30;;;12.60;86.00;;;;;;4131285;28;20163;-75
2022/07/28 01:39:33;;;;;;;2.63;2.37;;;12.70;85.50;;;;;;4129921;28;20193;-75
2022/07/28 01:41:36;;;;;;;2.90;2.27;;;12.70;85.50;;;;;;4129890;28;20670;-75
2022/07/28 01:43:40;;;;;;;4.00;2.67;;;12.70;85.50;;;;;;4131248;28;20657;-75
2022/07/28 01:45:42;;;;;;;3.10;2.63;;;12.60;85.60;;;;;;4130590;28;20238;-75
2022/07/28 01:47:44;;;;;;;3.63;2.70;;;12.60;86.20;;;;;;4131015;28;20185;-74
2022/07/28 01:49:49;;;;;;;3.97;2.50;;;12.50;86.10;;;;;;4130274;28;20571;-74
2022/07/28 01:51:51;;;;;;;2.47;2.07;;;12.60;86.20;;;;;;4131113;28;20179;-74
2022/07/28 01:53:53;;;;;;;2.40;2.10;;;12.60;86.30;;;;;;4129301;28;20217;-75
2022/07/28 01:55:57;;;;;;;3.33;2.20;;;12.50;86.30;;;;;;4131211;28;20292;-76
2022/07/28 01:57:58;;;;;;;4.00;2.50;;;12.50;86.70;;;;;;4130835;28;20692;-75
2022/07/28 02:00:00;;;;;;;2.53;2.17;;;12.50;87.00;;;;;;4129718;28;20182;-75
2022/07/28 02:02:02;;;;;;;4.60;3.00;;;12.50;87.10;;;;;;4130876;28;20269;-75
2022/07/28 02:04:04;;;;;;;6.50;2.70;;;12.40;87.30;;;;;;4130270;28;20721;-75
2022/07/28 02:06:05;;;;;;;2.93;2.50;;;12.50;87.40;;;;;;4127198;28;20214;-74
2022/07/28 02:08:07;;;;;;;3.77;2.50;;;12.50;87.40;;;;;;4130020;28;20181;-74
2022/07/28 02:10:11;;;;;;;4.40;2.40;;;12.50;87.50;;;;;;4130753;28;20690;-75
2022/07/28 02:12:16;;;;;;;2.97;2.20;;;12.40;87.40;;;;;;4129357;28;20667;-77
2022/07/28 02:14:22;;;;;;;3.20;2.47;;;12.50;87.70;;;;;;4130150;28;20264;-74
2022/07/28 02:16:24;;;;;;;3.93;2.60;;;12.50;87.70;;;;;;4131123;28;20301;-75
2022/07/28 02:18:26;;;;;;;4.03;2.43;;;12.40;88.30;;;;;;4130773;28;20259;-75
2022/07/28 02:20:28;;;;;;;3.90;2.70;;;12.40;88.10;;;;;;4130650;28;20186;-75
2022/07/28 02:22:30;;;;;;;3.80;2.10;;;12.30;88.20;;;;;;4124631;28;20290;-75
2022/07/28 02:24:33;;;;;;;4.53;2.50;;;12.30;88.50;;;;;;4128709;28;20618;-75
2022/07/28 02:26:38;;;;;;;3.30;2.60;;;12.30;88.40;;;;;;4138897;28;20223;-75
2022/07/28 02:28:45;;;;;;;3.53;2.33;;;12.30;88.60;;;;;;4145548;28;20268;-76
2022/07/28 02:31:00;;;;;;;5.07;2.57;;;12.30;88.60;;;;;;4145423;28;20651;-75
2022/07/28 02:33:06;;;;;;;2.53;2.30;;;12.30;88.50;;;;;;4146898;28;20190;-76
2022/07/28 02:35:24;;;;;;;3.73;2.40;;;12.30;88.70;;;;;;4146025;28;20276;-76
2022/07/28 02:37:25;;;;;;;2.80;2.33;;;12.20;88.90;;;;;;4146562;28;20181;-76
2022/07/28 02:39:40;;;;;;;4.63;2.27;;;12.20;89.70;;;;;;4146683;28;20189;-75
2022/07/28 02:41:42;;;;;;;2.67;2.00;;;12.10;90.00;;;;;;4146900;28;20169;-77
2022/07/28 02:43:45;;;;;;;3.90;2.50;;;12.10;90.20;;;;;;4131173;28;20193;-77
2022/07/28 02:45:52;;;;;;;2.53;2.30;;;12.10;90.20;;;;;;4130799;28;20213;-76
2022/07/28 02:47:57;;;;;;;4.80;2.30;;;12.10;90.20;;;;;;4130993;28;20260;-77
2022/07/28 02:50:00;;;;;;;6.33;2.80;;;12.00;90.40;;;;;;4129691;28;20214;-76
2022/07/28 02:52:03;;;;;;;3.50;2.33;;;12.00;90.60;;;;;;4128916;28;20322;-77
2022/07/28 02:54:05;;;;;;;3.37;2.90;;;12.00;90.80;;;;;;4128020;28;20201;-77
2022/07/28 02:56:07;;;;;;;4.23;2.50;;;11.90;90.90;;;;;;4128949;28;20201;-76
2022/07/28 02:58:09;;;;;;;3.97;2.67;;;11.90;90.90;;;;;;4130244;28;20604;-76
2022/07/28 03:00:11;;;;;;;3.57;2.70;;;11.90;91.00;;;;;;4130411;28;20571;-77
2022/07/28 03:02:12;;;;;;;5.30;2.50;;;11.90;91.10;;;;;;4130318;28;20190;-77
2022/07/28 03:04:13;;;;;;;3.10;2.40;;;11.90;91.40;;;;;;4128036;28;20201;-77
2022/07/28 03:06:18;;;;;;;3.13;2.70;;;12.00;91.40;;;;;;4131291;28;20309;-77
2022/07/28 03:08:19;;;;;;;3.23;2.50;;;11.90;91.20;;;;;;4131035;28;20192;-76
2022/07/28 03:10:25;;;;;;;3.60;2.80;;;11.90;91.30;;;;;;4130247;28;20291;-77
2022/07/28 03:12:26;;;;;;;3.17;2.37;;;11.90;91.50;;;;;;4130000;28;20196;-77
2022/07/28 03:14:26;;;;;;;3.57;2.70;;;11.90;91.50;;;;;;4128099;28;20182;-77
2022/07/28 03:16:27;;;;;;;3.27;2.30;;;11.90;91.50;;;;;;4128823;28;20217;-77
2022/07/28 03:18:28;;;;;;;3.13;2.40;;;11.90;91.70;;;;;;4130056;28;20240;-77
2022/07/28 03:20:29;;;;;;;6.50;3.07;;;11.90;91.70;;;;;;4129948;28;20213;-77
2022/07/28 03:22:29;;;;;;;5.27;2.60;;;11.90;91.60;;;;;;4130287;28;20182;-78
2022/07/28 03:24:34;;;;;;;4.93;2.80;;;11.80;91.60;;;;;;4129456;28;20193;-77
2022/07/28 03:26:40;;;;;;;4.03;2.77;;;11.80;91.80;;;;;;4128931;28;20224;-77
2022/07/28 03:28:42;;;;;;;3.97;2.30;;;11.80;92.00;;;;;;4130439;28;20518;-76
2022/07/28 03:31:09;;;;;;;3.87;2.83;;;11.80;91.80;;;;;;4130150;28;20178;-76
2022/07/28 03:33:11;;;;;;;4.67;2.90;;;11.70;92.00;;;;;;4118673;28;20672;-77
2022/07/28 03:35:13;;;;;;;4.10;2.70;;;11.70;92.10;;;;;;4129725;28;20205;-77
2022/07/28 03:37:17;;;;;;;4.70;2.80;;;11.70;92.40;;;;;;4130651;28;20194;-77
2022/07/28 03:39:20;;;;;;;5.63;2.70;;;11.70;92.50;;;;;;4129186;28;20189;-77
2022/07/28 03:41:21;;;;;;;5.43;2.90;;;11.60;92.70;;;;;;4130800;28;20244;-77
2022/07/28 03:43:24;;;;;;;5.30;2.60;;;11.60;92.70;;;;;;4130575;28;20183;-77
2022/07/28 03:45:25;;;;;;;3.27;2.70;;;11.60;92.70;;;;;;4130729;28;20710;-77
2022/07/28 03:47:26;;;;;;;4.70;2.90;;;11.60;93.00;;;;;;4130415;28;20178;-78
2022/07/28 03:49:26;;;;;;;5.60;2.80;;;11.50;93.10;;;;;;4132134;28;20738;-76
2022/07/28 03:51:28;;;;;;;3.47;2.63;;;11.40;93.70;;;;;;4132205;28;20561;-77
2022/07/28 03:53:28;;;;;;;4.03;2.70;;;11.50;93.60;;;;;;4133192;28;20193;-77
2022/07/28 03:55:29;;;;;;;3.63;2.53;;;11.50;93.50;;;;;;4138648;28;20268;-77
2022/07/28 03:57:30;;;;;;;4.77;2.87;;;11.50;94.00;;;;;;4138954;28;20241;-78
2022/07/28 03:59:30;;;;;;;3.87;2.53;;;11.50;93.60;;;;;;4139914;28;20716;-78
2022/07/28 04:01:31;;;;;;;3.97;2.67;;;11.50;93.90;;;;;;4139271;28;20182;-78
2022/07/28 04:03:32;;;;;;;4.03;2.50;;;11.50;93.70;;;;;;4140293;28;20181;-78
2022/07/28 04:05:32;;;;;;;5.30;2.70;;;11.50;93.30;;;;;;4140134;28;20229;-78
2022/07/28 04:07:33;;;;;;;2.83;2.40;;;11.50;93.30;;;;;;4140916;28;20202;-79
2022/07/28 04:09:33;;;;;;;3.27;2.40;;;11.50;93.50;;;;;;4140910;28;20186;-78
2022/07/28 04:11:34;;;;;;;3.43;3.13;;;11.40;93.60;;;;;;4140536;28;20226;-78
2022/07/28 04:13:35;;;;;;;2.90;2.60;;;11.40;93.50;;;;;;4143701;28;20758;-78
2022/07/28 04:15:36;;;;;;;5.47;3.00;;;11.40;93.70;;;;;;4142867;28;20707;-78
2022/07/28 04:17:36;;;;;;;3.67;2.40;;;11.50;93.80;;;;;;4140810;28;20178;-78
2022/07/28 04:19:37;;;;;;;4.83;2.57;;;11.50;93.40;;;;;;4142593;28;20192;-76
2022/07/28 04:21:37;;;;;;;3.00;2.33;;;11.50;93.60;;;;;;4143727;28;20177;-76
2022/07/28 04:23:38;;;;;;;4.90;2.90;;;11.50;93.60;;;;;;4149544;28;20185;-77
2022/07/28 04:25:39;;;;;;;4.20;2.50;;;11.50;93.60;;;;;;4138794;28;20214;-77
2022/07/28 04:27:41;;;;;;;2.57;2.37;;;11.50;93.50;;;;;;4142363;28;20178;-77
2022/07/28 04:29:41;;;;;;;3.50;2.67;;;11.40;93.50;;;;;;4146998;28;20185;-77
2022/07/28 04:31:42;;;;;;;3.80;2.63;;;11.40;93.80;;;;;;4137098;28;20263;-77
2022/07/28 04:33:43;;;;;;;3.03;2.67;;;11.40;94.00;;;;;;4133628;28;20179;-79
2022/07/28 04:35:43;;;;;;;4.83;3.30;;;11.50;93.80;;;;;;4141827;28;20247;-78
2022/07/28 04:37:47;;;;;;;3.57;2.33;;;11.50;93.90;;;;;;4144532;28;20197;-78
2022/07/28 04:39:49;;;;;;;4.37;2.90;;;11.50;93.90;;;;;;4142963;28;20194;-79
2022/07/28 04:41:51;;;;;;;5.70;2.50;;;11.40;94.20;;;;;;4141106;28;20224;-77
2022/07/28 04:43:51;;;;;;;4.27;2.73;;;11.50;94.40;;;;;;4138132;28;20185;-78
2022/07/28 04:45:52;;;;;;;4.37;2.63;;;11.60;93.60;;;;;;4139532;28;20202;-77
2022/07/28 04:47:53;;;;;;;4.00;2.50;;;11.60;93.70;;;;;;4140039;28;20177;-77
2022/07/28 04:49:54;;;;;;;4.17;2.63;;;11.60;93.70;;;;;;4139500;28;20260;-78
2022/07/28 04:51:55;;;;;;;3.30;2.20;;;11.60;93.60;;;;;;4143230;28;20186;-79
2022/07/28 04:53:55;;;;;;;4.33;2.80;;;11.60;93.70;;;;;;4145333;28;20269;-80
2022/07/28 04:55:56;;;;;;;4.20;2.83;;;11.60;93.80;;;;;;4145285;28;20202;-79
2022/07/28 04:57:57;;;;;;;4.33;2.37;;;11.70;93.40;;;;;;4146342;28;20183;-79
2022/07/28 04:59:59;;;;;;;5.03;2.80;;;11.60;93.70;;;;;;4145675;28;20182;-80
2022/07/28 05:01:59;;;;;;;7.83;2.70;;;11.70;93.90;;;;;;4144976;28;20628;-80
2022/07/28 05:04:00;;;;;;;5.60;2.80;;;11.80;93.30;;;;;;4145310;28;20190;-80
2022/07/28 05:06:01;;;;;;;3.43;2.80;;;11.90;93.30;;;;;;4145733;28;20233;-79
2022/07/28 05:08:01;;;;;;;3.80;2.40;;;11.90;93.10;;;;;;4153054;28;20198;-79
2022/07/28 05:10:04;;;;;;;3.10;2.50;;;11.90;93.10;;;;;;4149302;28;20214;-80
2022/07/28 05:12:05;;;;;;;4.63;3.03;;;12.00;92.90;;;;;;4146070;28;20174;-79
2022/07/28 05:14:06;;;;;;;2.37;2.17;;;11.90;93.00;;;;;;4146122;28;20396;-79
2022/07/28 05:16:06;;;;;;;7.37;3.00;;;12.10;93.30;;;;;;4146544;28;20315;-80
2022/07/28 05:18:07;;;;;;;3.90;2.60;;;12.10;92.50;;;;;;4144882;28;20209;-79
2022/07/28 05:20:08;;;;;;;4.83;2.70;;;12.20;92.30;;;;;;4146409;28;20251;-79
2022/07/28 05:22:08;;;;;;;6.00;2.80;;;12.20;92.40;;;;;;4146223;28;20178;-79
2022/07/28 05:24:09;;;;;;;7.23;2.70;;;12.20;92.30;;;;;;4142159;28;20493;-80
2022/07/28 05:26:09;;;;;;;4.60;3.10;;;12.20;92.20;;;;;;4145871;28;20241;-79
2022/07/28 05:28:10;;;;;;;3.47;2.93;;;12.30;92.40;;;;;;4146044;28;20193;-80
2022/07/28 05:30:12;;;;;;;3.50;2.80;;;12.30;92.00;;;;;;4145374;28;20186;-80
2022/07/28 05:32:13;;;;;;;7.50;3.30;;;12.30;92.70;;;;;;4146272;28;20476;-79
2022/07/28 05:34:14;;;;;;;6.10;3.00;;;12.40;91.60;;;;;;4143210;28;20187;-78
2022/07/28 05:36:15;;;;;;;4.63;3.00;;;12.40;91.80;;;;;;4145947;28;20222;-80
2022/07/28 05:38:15;;;;;;;3.30;3.00;;;12.50;91.50;;;;;;4146249;28;20205;-79
2022/07/28 05:40:17;;;;;;;5.20;2.80;;;12.50;91.60;;;;;;4144788;28;20658;-79
2022/07/28 05:42:17;;;;;;;4.60;2.60;;;12.60;91.50;;;;;;4144454;28;20187;-80
2022/07/28 05:44:18;;;;;;;5.83;3.03;;;12.70;91.00;;;;;;4144247;28;20194;-79
2022/07/28 05:46:18;;;;;;;2.90;2.53;;;12.70;90.90;;;;;;4146089;28;20282;-79
2022/07/28 05:48:20;;;;;;;3.97;2.63;;;12.70;91.10;;;;;;4145431;28;20209;-80
2022/07/28 05:50:22;;;;;;;5.60;2.90;;;12.70;91.00;;;;;;4144217;28;20186;-80
2022/07/28 05:52:22;;;;;;;3.37;3.07;;;12.80;90.80;;;;;;4143968;28;20209;-81
2022/07/28 05:54:23;;;;;;;4.70;3.60;;;12.80;90.60;;;;;;4144537;28;20217;-80
2022/07/28 05:56:23;;;;;;;5.03;3.10;;;12.90;90.90;;;;;;4145851;28;20221;-79
2022/07/28 05:58:24;;;;;;;3.40;2.90;;;12.90;91.10;;;;;;4144987;28;20198;-79
2022/07/28 06:00:25;;;;;;;3.60;3.03;;;12.90;90.90;;;;;;4145205;28;20185;-80
2022/07/28 06:02:25;;;;;;;3.50;2.40;;;13.10;90.40;;;;;;4145750;28;20183;-79
2022/07/28 06:04:26;;;;;;;4.37;2.70;;;13.20;90.10;;;;;;4144573;28;20245;-80
2022/07/28 06:06:26;;;;;;;5.00;2.53;;;13.30;89.80;;;;;;4144994;28;20237;-80
2022/07/28 06:08:29;;;;;;;4.47;2.97;;;13.30;90.00;;;;;;4144836;28;20186;-80
2022/07/28 06:10:57;;;;;;;5.23;2.80;;;13.30;90.00;;;;;;4144742;28;20238;-80
2022/07/28 06:12:55;;;;;;;4.00;2.87;;;13.40;89.10;;;;;;4144385;28;20253;-80
2022/07/28 06:14:55;;;;;;;3.20;2.60;;;13.40;89.90;;;;;;4143153;28;20189;-78
2022/07/28 06:16:56;;;;;;;5.30;3.00;;;13.50;90.10;;;;;;4142358;28;20744;-79
2022/07/28 06:18:56;;;;;;;4.47;3.00;;;13.60;88.80;;;;;;4143963;28;20183;-80
2022/07/28 06:20:57;;;;;;;4.87;3.10;;;13.80;88.40;;;;;;4144208;28;20182;-79
2022/07/28 06:22:58;;;;;;;3.57;2.90;;;13.80;88.00;;;;;;4139421;28;20197;-79
2022/07/28 06:24:58;;;;;;;5.00;3.03;;;14.00;87.10;;;;;;4143402;28;20593;-80
2022/07/28 06:27:01;;;;;;;4.90;3.10;;;14.20;85.70;;;;;;4144433;28;20210;-79
2022/07/28 06:29:02;;;;;;;4.40;3.20;;;14.30;85.30;;;;;;4142561;28;20182;-81
2022/07/28 06:31:03;;;;;;;5.50;3.87;;;14.40;84.90;;;;;;4142600;28;20183;-80
2022/07/28 06:33:04;;;;;;;5.10;3.47;;;14.60;85.30;;;;;;4142115;28;20210;-80
2022/07/28 06:35:06;;;;;;;6.20;3.73;;;14.80;84.00;;;;;;4141169;28;20210;-79
2022/07/28 06:37:06;;;;;;;6.37;4.10;;;14.90;84.30;;;;;;4141783;28;20632;-80
2022/07/28 06:39:07;;;;;;;6.97;4.57;;;15.00;83.20;;;;;;4143587;28;20190;-80
2022/07/28 06:41:08;;;;;;;7.80;7.10;;;15.10;82.80;;;;;;4141046;28;20220;-79
2022/07/28 06:43:08;;;;;;;6.37;4.80;;;15.30;81.60;;;;;;4142577;28;20186;-79
2022/07/28 06:45:10;;;;;;;4.17;3.57;;;15.40;81.00;;;;;;4140275;28;20217;-79
2022/07/28 06:47:11;;;;;;;7.00;5.50;;;15.60;80.20;;;;;;4142823;28;20272;-79
2022/07/28 06:49:11;;;;;;;7.43;6.73;;;15.60;79.90;;;;;;4141423;28;20186;-79
2022/07/28 06:51:13;;;;;;;15.70;12.97;;;15.70;79.80;;;;;;4141395;28;20182;-79
2022/07/28 06:53:14;;;;;;;5.33;3.83;;;15.90;79.30;;;;;;4141956;28;20182;-80
2022/07/28 06:55:15;;;;;;;6.73;4.20;;;16.20;76.30;;;;;;4141943;28;20209;-80
2022/07/28 06:57:15;;;;;;;4.53;4.00;;;16.30;76.40;;;;;;4142421;28;20189;-80
2022/07/28 06:59:16;;;;;;;20.60;15.77;;;16.20;76.90;;;;;;4141234;28;20257;-77
2022/07/28 07:01:16;;;;;;;5.07;3.87;;;16.40;75.80;;;;;;4142783;28;20712;-80
2022/07/28 07:03:17;;;;;;;5.37;3.67;;;16.60;74.00;;;;;;4142341;28;20607;-79
2022/07/28 07:05:17;;;;;;;4.10;3.70;;;16.70;75.10;;;;;;4141033;28;20512;-79
2022/07/28 07:07:18;;;;;;;4.63;4.23;;;16.60;74.70;;;;;;4143044;28;20431;-80
2022/07/28 07:09:19;;;;;;;5.83;3.40;;;16.80;73.60;;;;;;4148517;28;20167;-80
2022/07/28 07:11:19;;;;;;;5.00;3.60;;;16.90;73.50;;;;;;4136786;28;20193;-78
2022/07/28 07:13:20;;;;;;;4.03;3.70;;;17.10;72.90;;;;;;4130144;28;20234;-75
2022/07/28 07:15:20;;;;;;;13.10;11.97;;;17.10;73.50;;;;;;4128209;28;20202;-75
2022/07/28 07:17:21;;;;;;;4.70;4.30;;;17.20;73.40;;;;;;4128523;28;20240;-75
2022/07/28 07:19:21;;;;;;;7.13;6.43;;;17.20;73.30;;;;;;4128649;28;20187;-75
2022/07/28 07:21:22;;;;;;;6.23;3.87;;;17.50;71.10;;;;;;4128530;28;20174;-75
2022/07/28 07:23:22;;;;;;;6.50;3.80;;;17.80;68.70;;;;;;4128499;28;20182;-75
2022/07/28 07:25:23;;;;;;;6.60;4.33;;;17.90;68.80;;;;;;4127860;28;20611;-75
2022/07/28 07:27:23;;;;;;;5.00;3.57;;;18.10;67.40;;;;;;4127005;28;20218;-75
2022/07/28 07:29:24;;;;;;;4.27;3.47;;;18.20;68.20;;;;;;4128448;28;20183;-75
2022/07/28 07:31:24;;;;;;;6.50;3.60;;;18.50;66.40;;;;;;4129577;28;20178;-74
2022/07/28 07:33:25;;;;;;;6.33;5.30;;;18.70;64.40;;;;;;4129908;28;20186;-75
2022/07/28 07:35:25;;;;;;;7.07;4.43;;;18.80;63.70;;;;;;4129039;28;20301;-75
2022/07/28 07:37:26;;;;;;;8.13;7.50;;;18.90;63.00;;;;;;4129650;28;20603;-75
2022/07/28 07:39:27;;;;;;;7.33;5.10;;;19.00;62.90;;;;;;4129774;28;20208;-77
2022/07/28 07:41:27;;;;;;;7.17;6.47;;;19.00;63.90;;;;;;4129759;28;20193;-75
2022/07/28 07:43:28;;;;;;;14.93;13.73;;;19.10;62.30;;;;;;4129763;28;20182;-75
2022/07/28 07:45:28;;;;;;;4.80;4.20;;;19.20;62.80;;;;;;4128811;28;20203;-74
2022/07/28 07:47:29;;;;;;;11.17;10.17;;;19.20;62.10;;;;;;4131053;28;20224;-75
2022/07/28 07:49:29;;;;;;;4.63;3.60;;;19.20;61.60;;;;;;4133004;28;20175;-73
2022/07/28 07:51:30;;;;;;;7.17;6.50;;;19.30;61.00;;;;;;4132826;28;20183;-74
2022/07/28 07:53:31;;;;;;;11.93;10.57;;;19.50;60.30;;;;;;4132755;28;20174;-75
2022/07/28 07:55:32;;;;;;;6.10;4.07;;;19.60;61.90;;;;;;4132425;28;20689;-75
2022/07/28 07:57:32;;;;;;;21.07;18.53;;;19.70;60.10;;;;;;4131559;28;20278;-74
2022/07/28 07:59:33;;;;;;;5.57;5.03;;;19.80;59.00;;;;;;4132699;28;20254;-74
2022/07/28 08:01:33;;;;;;;8.67;7.97;;;20.00;58.80;;;;;;4132852;28;20182;-74
2022/07/28 08:03:34;;;;;;;92.33;83.83;;;20.00;58.20;;;;;;4132773;28;20182;-75
2022/07/28 08:05:35;;;;;;;50.80;35.50;;;19.70;59.30;;;;;;4132095;28;20206;-74
2022/07/28 08:07:35;;;;;;;30.23;26.43;;;19.90;60.00;;;;;;4131521;28;20179;-74
2022/07/28 08:09:36;;;;;;;5.87;4.13;;;20.00;58.40;;;;;;4132647;28;20543;-75
2022/07/28 08:11:36;;;;;;;17.20;15.60;;;20.10;57.90;;;;;;4132992;28;20674;-75
2022/07/28 08:13:37;;;;;;;5.13;4.73;;;20.30;58.90;;;;;;4131422;28;20183;-75
2022/07/28 08:15:37;;;;;;;15.87;14.23;;;20.50;56.90;;;;;;4132145;28;20282;-75
2022/07/28 08:17:38;;;;;;;5.47;4.97;;;20.40;55.90;;;;;;4132431;28;20206;-74
2022/07/28 08:19:38;;;;;;;9.97;8.80;;;20.30;56.00;;;;;;4131197;28;20178;-75
2022/07/28 08:21:39;;;;;;;9.97;6.37;;;20.50;56.20;;;;;;4132443;28;20174;-75
2022/07/28 08:23:39;;;;;;;78.47;73.13;;;20.60;55.90;;;;;;4132373;28;20171;-74
2022/07/28 08:25:40;;;;;;;14.37;12.93;;;20.70;55.30;;;;;;4131865;28;20256;-74
2022/07/28 08:27:40;;;;;;;6.63;5.00;;;20.70;56.30;;;;;;4132701;28;20183;-74
2022/07/28 08:29:41;;;;;;;29.97;21.20;;;20.80;55.20;;;;;;4132597;28;20787;-74
2022/07/28 08:31:42;;;;;;;12.83;11.80;;;21.20;53.90;;;;;;4131105;28;20279;-74
2022/07/28 08:33:42;;;;;;;30.03;27.50;;;21.50;53.70;;;;;;4131009;28;20178;-74
2022/07/28 08:35:43;;;;;;;5.33;4.23;;;21.60;52.10;;;;;;4131766;28;20494;-75
2022/07/28 08:37:44;;;;;;;5.47;4.87;;;21.50;52.30;;;;;;4128405;28;20614;-74
2022/07/28 08:39:44;;;;;;;16.83;10.90;;;21.60;52.30;;;;;;4117349;28;20192;-74
2022/07/28 08:42:07;;;;;;;38.50;29.47;;;21.70;52.20;;;;;;4134549;28;20185;-75
2022/07/28 08:44:14;;;;;;;5.90;5.40;;;21.70;51.30;;;;;;4145187;28;20166;-74
2022/07/28 08:46:17;;;;;;;4.00;3.70;;;22.00;52.20;;;;;;4146787;28;20219;-75
2022/07/28 08:48:20;;;;;;;16.67;15.37;;;22.00;50.00;;;;;;4135838;28;20662;-75
2022/07/28 08:50:23;;;;;;;15.67;14.27;;;22.10;52.00;;;;;;4131982;28;20178;-74
2022/07/28 08:52:27;;;;;;;27.70;25.03;;;22.10;49.80;;;;;;4131985;28;20170;-74
2022/07/28 08:54:28;;;;;;;6.33;5.83;;;22.00;49.60;;;;;;4131251;28;20186;-73
2022/07/28 08:56:30;;;;;;;5.90;5.27;;;22.20;49.30;;;;;;4132233;28;20217;-74
2022/07/28 08:58:32;;;;;;;53.87;44.33;;;22.60;49.60;;;;;;4131610;28;20545;-74
2022/07/28 09:00:33;;;;;;;4.83;4.00;;;22.50;48.70;;;;;;4131833;28;20677;-74
2022/07/28 09:02:39;;;;;;;9.10;8.23;;;22.50;49.10;;;;;;4131864;28;20174;-75
2022/07/28 09:04:41;;;;;;;8.17;7.53;;;22.40;49.00;;;;;;4131147;28;20278;-75
2022/07/28 09:06:42;;;;;;;21.33;16.77;;;22.80;47.80;;;;;;4131688;28;20206;-74
2022/07/28 09:08:42;;;;;;;6.13;5.53;;;22.90;47.10;;;;;;4131701;28;20186;-74
2022/07/28 09:10:43;;;;;;;4.97;4.37;;;23.00;47.20;;;;;;4131848;28;20178;-74
2022/07/28 09:12:43;;;;;;;9.03;8.33;;;23.20;47.10;;;;;;4132158;28;20205;-75
2022/07/28 09:14:44;;;;;;;8.83;8.13;;;23.00;46.10;;;;;;4129471;28;20183;-74
2022/07/28 09:16:45;;;;;;;9.67;8.93;;;22.90;47.10;;;;;;4131513;28;20657;-74
2022/07/28 09:18:46;;;;;;;4.97;3.60;;;22.60;47.30;;;;;;4131340;28;20337;-74
2022/07/28 09:20:46;;;;;;;5.87;5.37;;;22.60;48.00;;;;;;4131511;28;20178;-74
2022/07/28 09:22:58;;;;;;;27.13;25.07;;;23.00;47.30;;;;;;4131624;28;20233;-74
2022/07/28 09:25:02;;;;;;;7.23;6.13;;;23.40;46.60;;;;;;4129445;28;20278;-74
2022/07/28 09:27:06;;;;;;;4.80;3.60;;;23.50;45.50;;;;;;4130040;28;20210;-74
2022/07/28 09:29:07;;;;;;;12.43;9.50;;;23.60;46.40;;;;;;4131399;28;20167;-74
2022/07/28 09:31:08;;;;;;;62.33;41.77;;;23.90;44.60;;;;;;4131249;28;20185;-74
2022/07/28 09:33:23;;;;;;;4.63;3.30;;;23.80;43.80;;;;;;4130058;28;20248;-74
2022/07/28 09:35:24;;;;;;;4.70;4.13;;;23.50;44.10;;;;;;4131028;28;20713;-74
2022/07/28 09:37:26;;;;;;;8.03;7.33;;;23.50;45.80;;;;;;4135471;28;20187;-74
2022/07/28 09:39:29;;;;;;;3.70;2.73;;;23.60;44.10;;;;;;4137244;28;20182;-74
2022/07/28 09:41:46;;;;;;;36.07;32.23;;;23.90;44.10;;;;;;4138240;28;20191;-74
2022/07/28 09:43:48;;;;;;;6.17;4.03;;;23.50;43.60;;;;;;4133214;28;20228;-73
2022/07/28 09:46:06;;;;;;;27.07;24.80;;;23.60;43.70;;;;;;4132269;28;20195;-73
2022/07/28 09:48:11;;;;;;;13.57;12.30;;;24.20;42.60;;;;;;4131102;28;20175;-74
2022/07/28 09:50:19;;;;;;;13.13;12.13;;;24.40;42.00;;;;;;4131298;28;20185;-73
2022/07/28 09:52:31;;;;;;;4.67;4.27;;;24.70;41.70;;;;;;4132325;28;20158;-73
2022/07/28 09:54:32;;;;;;;7.20;6.77;;;24.70;41.30;;;;;;4131991;28;20182;-73
2022/07/28 09:56:33;;;;;;;4.03;3.47;;;24.20;43.20;;;;;;4132580;28;20574;-72
2022/07/28 09:58:34;;;;;;;49.63;36.97;;;24.00;42.20;;;;;;4132204;28;20179;-73
2022/07/28 10:00:35;;;;;;;4.90;4.57;;;23.90;43.00;;;;;;4131049;28;20570;-73
2022/07/28 10:02:36;;;;;;;8.57;7.73;;;24.20;42.60;;;;;;4132202;28;20277;-73
2022/07/28 10:04:39;;;;;;;6.73;6.23;;;24.60;41.50;;;;;;4131818;28;20602;-73
2022/07/28 10:06:39;;;;;;;21.20;19.33;;;25.20;40.10;;;;;;4132318;28;20217;-73
2022/07/28 10:08:48;;;;;;;17.57;16.47;;;25.80;38.90;;;;;;4132092;28;20185;-73
2022/07/28 10:11:01;;;;;;;5.77;5.37;;;26.30;37.50;;;;;;4131673;28;20652;-74
2022/07/28 10:13:05;;;;;;;4.50;3.23;;;25.90;36.90;;;;;;4131074;28;20225;-72
2022/07/28 10:16:09;;;;;;;3.37;2.60;;;26.50;37.30;;;;;;4130828;28;20253;-72
2022/07/28 10:17:34;;;;;;;15.27;14.10;;;26.60;36.50;;;;;;4130515;28;20194;-72
2022/07/28 10:19:35;;;;;;;50.63;30.90;;;27.00;35.70;;;;;;4130467;28;20773;-73
2022/07/28 10:21:42;;;;;;;29.43;27.37;;;27.10;35.40;;;;;;4130565;28;20170;-73
2022/07/28 10:23:49;;;;;;;5.83;3.97;;;26.20;36.20;;;;;;4130512;28;20163;-73
2022/07/28 10:25:51;;;;;;;15.27;14.23;;;25.50;38.40;;;;;;4129915;28;20284;-73
2022/07/28 10:27:53;;;;;;;9.03;8.27;;;26.40;36.20;;;;;;4130324;28;20189;-71
2022/07/28 10:29:58;;;;;;;4.70;4.30;;;27.00;34.50;;;;;;4129023;28;20281;-73
2022/07/28 10:32:04;;;;;;;5.47;3.33;;;26.80;34.80;;;;;;4130389;28;20305;-73
2022/07/28 10:34:08;;;;;;;5.93;3.50;;;27.30;34.50;;;;;;4128429;28;20560;-73
2022/07/28 10:36:10;;;;;;;6.30;3.90;;;27.10;34.50;;;;;;4130265;28;20229;-73
2022/07/28 10:38:12;;;;;;;15.97;14.47;;;27.30;34.20;;;;;;4130303;28;20178;-73